createdAt,value
2018-11-01T00:02:03.103Z,5.77
2018-11-01T00:04:31.411Z,5.30
2018-11-01T00:06:59.764Z,4.87
2018-11-01T00:09:28.143Z,5.07
2018-11-01T00:11:56.510Z,6.10
2018-11-01T00:14:25.624Z,6.93
2018-11-01T00:16:53.967Z,6.03
2018-11-01T00:19:22.383Z,4.93
2018-11-01T00:21:50.724Z,5.10
2018-11-01T00:24:19.860Z,6.33
2018-11-01T00:26:48.225Z,5.87
2018-11-01T00:29:16.546Z,5.37
2018-11-01T00:31:44.864Z,6.77
2018-11-01T00:34:14.099Z,5.43
2018-11-01T00:36:42.449Z,7.70
2018-11-01T00:39:10.755Z,5.60
2018-11-01T00:41:39.087Z,5.67
2018-11-01T00:44:07.510Z,5.87
2018-11-01T00:46:35.818Z,4.43
2018-11-01T00:49:04.163Z,7.23
2018-11-01T00:51:32.481Z,6.10
2018-11-01T00:54:00.918Z,5.47
2018-11-01T00:56:29.247Z,6.23
2018-11-01T00:58:57.583Z,5.30
2018-11-01T01:01:25.902Z,5.87
2018-11-01T01:03:54.239Z,6.27
2018-11-01T01:06:22.587Z,6.10
2018-11-01T01:08:51.654Z,6.97
2018-11-01T01:11:20.061Z,7.87
2018-11-01T01:13:49.133Z,7.03
2018-11-01T01:16:17.478Z,6.43
2018-11-01T01:18:45.877Z,7.20
2018-11-01T01:21:14.942Z,6.43
2018-11-01T01:23:43.266Z,7.70
2018-11-01T01:26:11.595Z,6.97
2018-11-01T01:28:39.956Z,6.40
2018-11-01T01:31:08.253Z,8.90
2018-11-01T01:33:36.584Z,7.90
2018-11-01T01:36:04.901Z,8.63
2018-11-01T01:38:33.271Z,10.17
2018-11-01T01:41:01.593Z,7.77
2018-11-01T01:43:29.918Z,8.47
2018-11-01T01:45:58.254Z,8.27
2018-11-01T01:48:26.586Z,7.70
2018-11-01T01:50:54.903Z,7.83
2018-11-01T01:53:23.257Z,7.37
2018-11-01T01:55:51.576Z,8.03
2018-11-01T01:58:19.993Z,10.47
2018-11-01T02:00:48.333Z,9.80
2018-11-01T02:03:16.665Z,8.13
2018-11-01T02:05:44.992Z,8.83
2018-11-01T02:08:13.329Z,7.70
2018-11-01T02:10:41.646Z,6.77
2018-11-01T02:13:09.986Z,8.67
2018-11-01T02:15:38.359Z,7.87
2018-11-01T02:18:06.689Z,6.07
2018-11-01T02:20:35.020Z,6.47
2018-11-01T02:23:03.358Z,7.60
2018-11-01T02:25:31.675Z,7.57
2018-11-01T02:28:00.031Z,5.67
2018-11-01T02:30:29.147Z,7.43
2018-11-01T02:32:57.461Z,7.10
2018-11-01T02:35:25.796Z,7.00
2018-11-01T02:37:54.198Z,6.60
2018-11-01T02:40:22.546Z,6.87
2018-11-01T02:42:51.629Z,6.03
2018-11-01T02:45:20.746Z,6.90
2018-11-01T02:47:49.127Z,6.50
2018-11-01T02:50:17.452Z,10.70
2018-11-01T02:52:45.796Z,7.30
2018-11-01T02:55:14.132Z,6.17
2018-11-01T02:57:42.468Z,8.13
2018-11-01T03:00:10.796Z,7.07
2018-11-01T03:02:39.894Z,6.83
2018-11-01T03:05:09.000Z,7.13
2018-11-01T03:07:38.125Z,7.73
2018-11-01T03:10:06.499Z,8.60
2018-11-01T03:12:34.864Z,8.17
2018-11-01T03:15:03.940Z,6.80
2018-11-01T03:17:33.049Z,7.00
2018-11-01T03:20:01.427Z,7.47
2018-11-01T03:22:30.524Z,8.33
2018-11-01T03:24:59.620Z,8.00
2018-11-01T03:27:27.939Z,7.27
2018-11-01T03:29:56.266Z,8.33
2018-11-01T03:32:25.389Z,9.07
2018-11-01T03:34:53.727Z,8.63
2018-11-01T03:37:22.138Z,8.50
2018-11-01T03:39:50.467Z,8.83
2018-11-01T03:42:18.780Z,8.40
2018-11-01T03:44:47.864Z,9.07
2018-11-01T03:47:16.248Z,8.80
2018-11-01T03:49:45.330Z,8.27
2018-11-01T03:52:13.766Z,8.03
2018-11-01T03:54:42.130Z,8.53
2018-11-01T03:57:10.459Z,9.67
2018-11-01T03:59:38.773Z,8.67
2018-11-01T04:02:07.871Z,8.57
2018-11-01T04:04:36.976Z,9.50
2018-11-01T04:07:05.313Z,7.70
2018-11-01T04:09:33.648Z,8.60
2018-11-01T04:12:01.988Z,9.77
2018-11-01T04:14:30.360Z,9.23
2018-11-01T04:16:58.780Z,9.53
2018-11-01T04:19:27.004Z,8.20
2018-11-01T04:21:55.329Z,8.73
2018-11-01T04:24:23.724Z,11.00
2018-11-01T04:26:52.036Z,7.87
2018-11-01T04:29:20.388Z,9.10
2018-11-01T04:31:48.738Z,11.07
2018-11-01T04:34:17.055Z,9.30
2018-11-01T04:36:45.413Z,9.50
2018-11-01T04:39:13.724Z,10.73
2018-11-01T04:41:42.184Z,9.50
2018-11-01T04:44:10.528Z,10.97
2018-11-01T04:46:38.926Z,10.87
2018-11-01T04:49:07.272Z,9.23
2018-11-01T04:51:36.368Z,10.90
2018-11-01T04:54:05.475Z,10.43
2018-11-01T04:56:34.563Z,10.17
2018-11-01T04:59:03.680Z,10.30
2018-11-01T05:01:31.998Z,8.63
2018-11-01T05:04:00.354Z,8.83
2018-11-01T05:06:28.712Z,7.87
2018-11-01T05:08:57.051Z,11.30
2018-11-01T05:11:25.381Z,17.37
2018-11-01T05:13:53.731Z,12.47
2018-11-01T05:16:22.845Z,8.20
2018-11-01T05:18:51.223Z,9.13
2018-11-01T05:21:20.349Z,9.63
2018-11-01T05:23:48.732Z,12.40
2018-11-01T05:26:17.131Z,8.83
2018-11-01T05:28:45.447Z,9.37
2018-11-01T05:31:14.569Z,10.40
2018-11-01T05:33:42.907Z,9.60
2018-11-01T05:36:11.276Z,8.23
2018-11-01T05:38:39.605Z,8.40
2018-11-01T05:41:07.973Z,9.37
2018-11-01T05:43:36.351Z,8.57
2018-11-01T05:46:04.729Z,10.40
2018-11-01T05:48:33.051Z,10.47
2018-11-01T05:51:01.504Z,9.20
2018-11-01T05:53:29.870Z,25.70
2018-11-01T05:55:58.210Z,14.10
2018-11-01T05:58:26.539Z,10.90
2018-11-01T06:00:54.914Z,9.80
2018-11-01T06:03:23.252Z,8.60
2018-11-01T06:05:51.597Z,8.67
2018-11-01T06:08:19.894Z,8.97
2018-11-01T06:10:48.236Z,8.70
2018-11-01T06:13:16.570Z,8.53
2018-11-01T06:15:44.979Z,10.07
2018-11-01T06:18:13.333Z,12.70
2018-11-01T06:20:42.459Z,8.53
2018-11-01T06:23:10.760Z,12.87
2018-11-01T06:25:39.108Z,10.63
2018-11-01T06:28:07.455Z,11.60
2018-11-01T06:30:35.825Z,9.07
2018-11-01T06:33:04.337Z,11.27
2018-11-01T06:35:33.470Z,8.73
2018-11-01T06:38:01.811Z,9.43
2018-11-01T06:40:30.907Z,12.27
2018-11-01T06:43:00.017Z,9.60
2018-11-01T06:45:28.362Z,13.40
2018-11-01T06:47:56.678Z,12.47
2018-11-01T06:50:25.047Z,9.70
2018-11-01T06:52:54.116Z,11.97
2018-11-01T06:55:22.466Z,9.60
2018-11-01T06:57:50.782Z,9.17
2018-11-01T07:00:19.143Z,11.60
2018-11-01T07:02:47.467Z,9.17
2018-11-01T07:05:15.840Z,8.67
2018-11-01T07:07:44.915Z,10.10
2018-11-01T07:10:14.030Z,9.70
2018-11-01T07:12:42.338Z,10.07
2018-11-01T07:15:10.697Z,10.03
2018-11-01T07:17:39.166Z,11.47
2018-11-01T07:20:07.328Z,11.57
2018-11-01T07:22:36.435Z,45.57
2018-11-01T07:25:04.802Z,28.43
2018-11-01T07:27:33.104Z,14.67
2018-11-01T07:30:01.431Z,13.83
2018-11-01T07:32:29.944Z,12.80
2018-11-01T07:34:58.257Z,7.63
2018-11-01T07:37:26.579Z,8.33
2018-11-01T07:39:54.933Z,8.67
2018-11-01T07:42:23.230Z,8.87
2018-11-01T07:44:51.667Z,9.90
2018-11-01T07:47:19.973Z,11.13
2018-11-01T07:49:48.295Z,9.20
2018-11-01T07:52:17.419Z,9.33
2018-11-01T07:54:45.755Z,8.43
2018-11-01T07:57:14.091Z,8.40
2018-11-01T07:59:42.423Z,9.27
2018-11-01T08:02:10.749Z,7.90
2018-11-01T08:04:39.080Z,9.03
2018-11-01T08:07:07.395Z,6.90
2018-11-01T08:09:35.753Z,10.47
2018-11-01T08:12:04.147Z,8.90
2018-11-01T08:14:32.511Z,9.93
2018-11-01T08:17:00.829Z,8.23
2018-11-01T08:19:29.338Z,11.13
2018-11-01T08:21:57.646Z,13.60
2018-11-01T08:24:25.976Z,9.77
2018-11-01T08:26:54.321Z,10.70
2018-11-01T08:29:22.694Z,8.53
2018-11-01T08:31:51.027Z,7.27
2018-11-01T08:34:19.371Z,8.37
2018-11-01T08:36:47.730Z,7.47
2018-11-01T08:39:16.854Z,7.93
2018-11-01T08:41:45.181Z,11.87
2018-11-01T08:44:14.272Z,9.47
2018-11-01T08:46:43.364Z,9.53
2018-11-01T08:49:11.739Z,9.33
2018-11-01T08:51:40.154Z,8.80
2018-11-01T08:54:08.477Z,8.40
2018-11-01T08:56:36.800Z,8.30
2018-11-01T08:59:05.191Z,9.03
2018-11-01T09:01:33.579Z,8.57
2018-11-01T09:04:01.919Z,8.00
2018-11-01T09:06:30.217Z,10.83
2018-11-01T09:08:58.558Z,8.47
2018-11-01T09:11:26.886Z,12.87
2018-11-01T09:13:55.284Z,8.87
2018-11-01T09:16:23.628Z,11.00
2018-11-01T09:18:52.714Z,9.20
2018-11-01T09:21:21.821Z,10.17
2018-11-01T09:23:50.968Z,11.67
2018-11-01T09:26:19.270Z,8.63
2018-11-01T09:28:47.702Z,10.83
2018-11-01T09:31:16.075Z,9.47
2018-11-01T09:33:44.412Z,10.27
2018-11-01T09:36:13.504Z,9.70
2018-11-01T09:38:41.866Z,8.13
2018-11-01T09:41:10.300Z,9.93
2018-11-01T09:43:38.656Z,8.70
2018-11-01T09:46:07.774Z,12.27
2018-11-01T09:48:36.157Z,11.87
2018-11-01T09:51:04.506Z,10.17
2018-11-01T09:53:32.932Z,11.70
2018-11-01T09:56:01.281Z,8.93
2018-11-01T09:58:29.686Z,11.13
2018-11-01T10:00:58.102Z,10.83
2018-11-01T10:03:26.392Z,10.83
2018-11-01T10:05:54.842Z,10.23
2018-11-01T10:08:23.174Z,9.00
2018-11-01T10:10:52.285Z,11.30
2018-11-01T10:13:20.635Z,9.13
2018-11-01T10:15:49.932Z,8.83
2018-11-01T10:18:19.283Z,9.90
2018-11-01T10:20:47.179Z,7.63
2018-11-01T10:23:15.631Z,8.43
2018-11-01T10:25:43.991Z,9.83
2018-11-01T10:28:12.393Z,10.53
2018-11-01T10:30:40.740Z,9.10
2018-11-01T10:33:09.848Z,13.37
2018-11-01T10:35:38.235Z,8.97
2018-11-01T10:38:07.317Z,11.10
2018-11-01T10:40:35.668Z,8.93
2018-11-01T10:43:04.005Z,10.27
2018-11-01T10:45:32.360Z,12.23
2018-11-01T10:48:00.697Z,11.43
2018-11-01T10:50:29.051Z,11.27
2018-11-01T10:52:57.379Z,9.27
2018-11-01T10:55:25.730Z,11.70
2018-11-01T10:57:54.075Z,8.60
2018-11-01T11:00:22.542Z,13.47
2018-11-01T11:02:50.752Z,9.50
2018-11-01T11:05:19.147Z,7.70
2018-11-01T11:07:47.473Z,10.47
2018-11-01T11:10:15.801Z,9.50
2018-11-01T11:12:44.144Z,13.13
2018-11-01T11:15:12.490Z,10.90
2018-11-01T11:17:40.841Z,14.80
2018-11-01T11:20:09.264Z,10.50
2018-11-01T11:22:37.552Z,30.37
2018-11-01T11:25:05.895Z,25.20
2018-11-01T11:27:35.054Z,15.10
2018-11-01T11:30:03.487Z,13.83
2018-11-01T11:32:32.481Z,9.20
2018-11-01T11:35:01.579Z,13.60
2018-11-01T11:37:29.974Z,11.60
2018-11-01T11:39:58.360Z,13.50
2018-11-01T11:42:26.675Z,11.43
2018-11-01T11:44:55.035Z,10.60
2018-11-01T11:47:23.361Z,11.60
2018-11-01T11:49:52.497Z,11.70
2018-11-01T11:52:20.835Z,9.77
2018-11-01T11:54:49.174Z,9.40
2018-11-01T11:57:17.544Z,12.63
2018-11-01T11:59:46.024Z,13.27
2018-11-01T12:02:14.660Z,11.83
2018-11-01T12:04:42.973Z,10.97
2018-11-01T12:07:11.343Z,11.23
2018-11-01T12:09:39.685Z,12.03
2018-11-01T12:12:08.225Z,9.73
2018-11-01T12:14:36.578Z,10.87
2018-11-01T12:17:05.166Z,10.53
2018-11-01T12:19:33.566Z,12.10
2018-11-01T12:22:02.025Z,10.80
2018-11-01T12:24:30.412Z,13.23
2018-11-01T12:26:58.827Z,8.97
2018-11-01T12:29:27.158Z,12.40
2018-11-01T12:31:55.549Z,9.53
2018-11-01T12:34:23.935Z,9.10
2018-11-01T12:36:52.317Z,10.33
2018-11-01T12:39:20.637Z,10.83
2018-11-01T12:41:48.986Z,10.93
2018-11-01T12:44:17.369Z,11.40
2018-11-01T12:46:45.740Z,13.03
2018-11-01T12:49:14.112Z,13.60
2018-11-01T12:51:42.785Z,11.67
2018-11-01T12:54:11.131Z,9.53
2018-11-01T12:56:40.237Z,10.30
2018-11-01T12:59:09.442Z,11.37
2018-11-01T13:01:38.525Z,12.87
2018-11-01T13:04:07.643Z,12.80
2018-11-01T13:06:35.994Z,11.77
2018-11-01T13:09:04.335Z,13.40
2018-11-01T13:11:32.845Z,12.83
2018-11-01T13:14:01.199Z,11.20
2018-11-01T13:16:29.544Z,10.50
2018-11-01T13:18:57.943Z,9.80
2018-11-01T13:21:26.289Z,11.33
2018-11-01T13:23:54.638Z,11.57
2018-11-01T13:26:23.013Z,10.00
2018-11-01T13:28:51.450Z,12.17
2018-11-01T13:31:19.783Z,10.63
2018-11-01T13:33:48.916Z,13.20
2018-11-01T13:36:17.263Z,10.53
2018-11-01T13:38:45.635Z,13.23
2018-11-01T13:41:14.568Z,10.97
2018-11-01T13:43:42.350Z,12.30
2018-11-01T13:46:10.697Z,13.00
2018-11-01T13:48:39.031Z,14.67
2018-11-01T13:51:07.478Z,11.27
2018-11-01T13:53:35.811Z,13.20
2018-11-01T13:56:04.154Z,14.73
2018-11-01T13:58:32.509Z,13.93
2018-11-01T14:01:00.873Z,10.97
2018-11-01T14:03:29.987Z,14.67
2018-11-01T14:05:58.412Z,15.00
2018-11-01T14:08:26.756Z,12.80
2018-11-01T14:10:55.132Z,11.50
2018-11-01T14:13:23.541Z,13.07
2018-11-01T14:15:51.823Z,14.00
2018-11-01T14:18:20.156Z,13.17
2018-11-01T14:20:48.525Z,14.87
2018-11-01T14:23:17.631Z,11.57
2018-11-01T14:25:45.981Z,14.37
2018-11-01T14:28:15.104Z,11.77
2018-11-01T14:30:43.485Z,12.90
2018-11-01T14:33:11.859Z,15.13
2018-11-01T14:35:40.253Z,13.30
2018-11-01T14:38:08.653Z,15.00
2018-11-01T14:40:36.964Z,16.77
2018-11-01T14:43:05.407Z,14.97
2018-11-01T14:45:33.749Z,15.57
2018-11-01T14:48:02.844Z,15.17
2018-11-01T14:50:31.224Z,15.63
2018-11-01T14:52:59.932Z,12.93
2018-11-01T14:55:29.422Z,13.87
2018-11-01T14:57:57.423Z,17.20
2018-11-01T15:00:24.651Z,13.53
2018-11-01T15:02:52.987Z,14.37
2018-11-01T15:05:21.341Z,16.43
2018-11-01T15:07:49.679Z,13.63
2018-11-01T15:10:18.050Z,16.83
2018-11-01T15:12:47.172Z,18.83
2018-11-01T15:15:15.513Z,16.57
2018-11-01T15:17:43.867Z,16.83
2018-11-01T15:20:12.217Z,18.10
2018-11-01T15:22:40.567Z,15.47
2018-11-01T15:25:08.934Z,18.80
2018-11-01T15:27:38.109Z,17.20
2018-11-01T15:30:06.694Z,16.00
2018-11-01T15:32:35.761Z,15.93
2018-11-01T15:35:04.119Z,16.83
2018-11-01T15:37:32.536Z,15.90
2018-11-01T15:40:00.868Z,17.90
2018-11-01T15:42:29.952Z,17.07
2018-11-01T15:44:58.319Z,15.70
2018-11-01T15:47:27.431Z,16.00
2018-11-01T15:49:55.805Z,15.07
2018-11-01T15:52:24.907Z,15.97
2018-11-01T15:54:53.281Z,16.83
2018-11-01T15:57:22.399Z,18.50
2018-11-01T15:59:50.751Z,16.10
2018-11-01T16:02:19.941Z,13.20
2018-11-01T16:04:48.987Z,13.70
2018-11-01T16:07:17.341Z,17.93
2018-11-01T16:09:46.581Z,14.77
2018-11-01T16:12:14.911Z,14.30
2018-11-01T16:14:43.310Z,15.17
2018-11-01T16:17:11.675Z,15.90
2018-11-01T16:19:40.131Z,14.23
2018-11-01T16:22:08.409Z,14.50
2018-11-01T16:24:36.739Z,14.17
2018-11-01T16:27:05.208Z,16.23
2018-11-01T16:29:33.481Z,14.90
2018-11-01T16:32:01.865Z,15.03
2018-11-01T16:34:30.214Z,14.00
2018-11-01T16:36:59.387Z,15.70
2018-11-01T16:39:27.688Z,13.30
2018-11-01T16:41:56.119Z,15.23
2018-11-01T16:44:24.487Z,13.87
2018-11-01T16:46:52.841Z,12.67
2018-11-01T16:49:21.200Z,13.70
2018-11-01T16:51:49.551Z,13.07
2018-11-01T16:54:17.983Z,16.73
2018-11-01T16:56:46.339Z,13.73
2018-11-01T16:59:15.452Z,13.43
2018-11-01T17:01:44.596Z,12.77
2018-11-01T17:04:12.971Z,13.90
2018-11-01T17:06:41.296Z,16.77
2018-11-01T17:09:10.427Z,12.63
2018-11-01T17:11:38.760Z,17.80
2018-11-01T17:14:07.104Z,11.97
2018-11-01T17:16:35.452Z,11.43
2018-11-01T17:19:03.812Z,13.40
2018-11-01T17:21:32.912Z,9.03
2018-11-01T17:24:02.020Z,9.93
2018-11-01T17:26:31.224Z,13.40
2018-11-01T17:28:59.622Z,10.27
2018-11-01T17:31:27.946Z,11.17
2018-11-01T17:33:57.170Z,12.37
2018-11-01T17:36:25.434Z,10.17
2018-11-01T17:38:54.587Z,10.60
2018-11-01T17:41:22.992Z,9.30
2018-11-01T17:43:52.054Z,10.80
2018-11-01T17:46:20.429Z,12.37
2018-11-01T17:48:48.753Z,12.47
2018-11-01T17:51:17.188Z,11.53
2018-11-01T17:53:45.560Z,11.30
2018-11-01T17:56:13.889Z,10.77
2018-11-01T17:58:43.035Z,12.20
2018-11-01T18:01:11.425Z,10.80
2018-11-01T18:03:39.775Z,11.23
2018-11-01T18:06:08.908Z,9.17
2018-11-01T18:08:37.428Z,7.90
2018-11-01T18:11:06.482Z,6.53
2018-11-01T18:13:34.801Z,8.30
2018-11-01T18:16:03.932Z,9.13
2018-11-01T18:18:32.309Z,8.60
2018-11-01T18:21:00.647Z,8.83
2018-11-01T18:23:29.133Z,9.67
2018-11-01T18:25:58.162Z,9.80
2018-11-01T18:28:26.570Z,9.43
2018-11-01T18:30:54.900Z,9.80
2018-11-01T18:33:23.993Z,8.57
2018-11-01T18:35:53.095Z,9.33
2018-11-01T18:38:22.219Z,7.37
2018-11-01T18:40:50.586Z,11.00
2018-11-01T18:43:18.929Z,10.20
2018-11-01T18:45:47.289Z,9.13
2018-11-01T18:48:15.658Z,7.40
2018-11-01T18:50:43.997Z,9.57
2018-11-01T18:53:13.100Z,7.70
2018-11-01T18:55:41.471Z,10.60
2018-11-01T18:58:10.565Z,9.10
2018-11-01T19:00:39.737Z,9.30
2018-11-01T19:03:08.061Z,8.73
2018-11-01T19:05:36.415Z,10.50
2018-11-01T19:08:04.781Z,11.23
2018-11-01T19:10:33.118Z,10.83
2018-11-01T19:13:01.500Z,10.00
2018-11-01T19:15:29.844Z,9.60
2018-11-01T19:17:58.178Z,6.97
2018-11-01T19:20:26.544Z,9.60
2018-11-01T19:22:54.876Z,10.80
2018-11-01T19:25:24.077Z,10.03
2018-11-01T19:27:53.271Z,7.87
2018-11-01T19:30:22.265Z,6.90
2018-11-01T19:32:50.661Z,9.17
2018-11-01T19:35:19.032Z,7.30
2018-11-01T19:37:47.408Z,10.30
2018-11-01T19:40:16.613Z,11.17
2018-11-01T19:42:44.949Z,12.27
2018-11-01T19:45:13.255Z,7.60
2018-11-01T19:47:42.146Z,10.73
2018-11-01T19:50:10.555Z,9.10
2018-11-01T19:52:38.876Z,7.20
2018-11-01T19:55:07.225Z,6.97
2018-11-01T19:57:35.592Z,7.33
2018-11-01T20:00:04.676Z,7.70
2018-11-01T20:02:33.799Z,6.33
2018-11-01T20:05:02.149Z,6.73
2018-11-01T20:07:31.365Z,6.27
2018-11-01T20:09:59.785Z,6.30
2018-11-01T20:12:28.111Z,7.70
2018-11-01T20:14:56.479Z,6.17
2018-11-01T20:17:24.823Z,6.77
2018-11-01T20:19:53.378Z,7.47
2018-11-01T20:22:21.709Z,8.40
2018-11-01T20:24:50.820Z,8.27
2018-11-01T20:27:19.248Z,7.70
2018-11-01T20:29:47.595Z,6.77
2018-11-01T20:32:15.991Z,12.30
2018-11-01T20:34:44.411Z,8.90
2018-11-01T20:37:12.782Z,8.03
2018-11-01T20:39:41.114Z,8.17
2018-11-01T20:42:09.489Z,10.77
2018-11-01T20:44:37.808Z,9.87
2018-11-01T20:47:06.157Z,8.43
2018-11-01T20:49:34.536Z,8.73
2018-11-01T20:52:02.935Z,10.43
2018-11-01T20:54:31.276Z,8.47
2018-11-01T20:56:59.670Z,7.30
2018-11-01T20:59:27.963Z,8.97
2018-11-01T21:01:56.334Z,7.90
2018-11-01T21:04:24.765Z,7.80
2018-11-01T21:06:53.176Z,8.90
2018-11-01T21:09:21.480Z,9.57
2018-11-01T21:11:50.011Z,8.97
2018-11-01T21:14:18.234Z,7.90
2018-11-01T21:16:46.649Z,8.13
2018-11-01T21:19:16.140Z,9.87
2018-11-01T21:21:45.664Z,8.83
2018-11-01T21:24:14.105Z,8.43
2018-11-01T21:26:42.429Z,8.30
2018-11-01T21:29:11.359Z,7.97
2018-11-01T21:31:39.645Z,7.33
2018-11-01T21:34:07.970Z,7.27
2018-11-01T21:36:36.396Z,9.00
2018-11-01T21:39:04.730Z,8.57
2018-11-01T21:41:33.084Z,8.03
2018-11-01T21:44:01.421Z,9.30
2018-11-01T21:46:30.379Z,7.50
2018-11-01T21:48:58.730Z,7.87
2018-11-01T21:51:27.068Z,8.63
2018-11-01T21:53:55.427Z,7.60
2018-11-01T21:56:24.513Z,7.33
2018-11-01T21:58:52.889Z,7.47
2018-11-01T22:01:21.210Z,8.27
2018-11-01T22:03:49.609Z,8.33
2018-11-01T22:06:17.946Z,12.63
2018-11-01T22:08:46.452Z,9.97
2018-11-01T22:11:14.839Z,9.33
2018-11-01T22:13:43.232Z,9.50
2018-11-01T22:16:11.569Z,8.97
2018-11-01T22:18:40.667Z,8.53
2018-11-01T22:21:09.081Z,9.50
2018-11-01T22:23:37.420Z,8.37
2018-11-01T22:26:06.550Z,7.57
2018-11-01T22:28:35.026Z,10.90
2018-11-01T22:31:03.253Z,9.80
2018-11-01T22:33:31.579Z,8.67
2018-11-01T22:35:59.928Z,10.00
2018-11-01T22:38:29.103Z,10.17
2018-11-01T22:40:57.435Z,8.83
2018-11-01T22:43:25.763Z,13.17
2018-11-01T22:45:54.126Z,9.03
2018-11-01T22:48:22.467Z,8.73
2018-11-01T22:50:50.829Z,10.80
2018-11-01T22:53:19.165Z,9.97
2018-11-01T22:55:47.471Z,8.70
2018-11-01T22:58:16.614Z,9.30
2018-11-01T23:00:45.119Z,10.03
2018-11-01T23:03:13.470Z,9.20
2018-11-01T23:05:41.873Z,10.43
2018-11-01T23:08:11.495Z,10.57
2018-11-01T23:10:39.795Z,10.67
2018-11-01T23:13:08.950Z,10.57
2018-11-01T23:15:37.267Z,12.97
2018-11-01T23:18:05.625Z,11.00
2018-11-01T23:20:33.951Z,10.73
2018-11-01T23:23:02.291Z,11.10
2018-11-01T23:25:30.710Z,9.97
2018-11-01T23:27:59.091Z,10.67
2018-11-01T23:30:27.481Z,9.93
2018-11-01T23:32:55.861Z,12.83
2018-11-01T23:35:24.222Z,11.67
2018-11-01T23:37:58.173Z,13.27
2018-11-01T23:40:32.126Z,11.10
2018-11-01T23:43:06.940Z,12.03
2018-11-01T23:45:40.933Z,11.50
2018-11-01T23:48:08.779Z,13.53
2018-11-01T23:50:37.129Z,14.50
2018-11-01T23:53:05.459Z,11.90
2018-11-01T23:55:33.803Z,14.80
2018-11-01T23:58:02.159Z,16.30
